sensor_id;sensor_type;location;lat;lon;timestamp;P1;durP1;ratioP1;P2;durP2;ratioP2
63008;SDS011;49099;28.428;-16.488;2023-03-14T00:01:07;20.02;;;3.25;;
63008;SDS011;49099;28.428;-16.488;2023-03-14T00:03:50;17.90;;;3.20;;
63008;SDS011;49099;28.428;-16.488;2023-03-14T00:06:17;19.40;;;4.03;;
63008;SDS011;49099;28.428;-16.488;2023-03-14T00:08:45;15.15;;;3.20;;
63008;SDS011;49099;28.428;-16.488;2023-03-14T00:11:17;13.40;;;2.90;;
63008;SDS011;49099;28.428;-16.488;2023-03-14T00:13:46;12.60;;;2.65;;
63008;SDS011;49099;28.428;-16.488;2023-03-14T00:16:14;14.90;;;2.70;;
63008;SDS011;49099;28.428;-16.488;2023-03-14T00:18:42;13.00;;;2.88;;
63008;SDS011;49099;28.428;-16.488;2023-03-14T00:21:10;15.35;;;3.22;;
63008;SDS011;49099;28.428;-16.488;2023-03-14T00:23:41;13.07;;;3.17;;
63008;SDS011;49099;28.428;-16.488;2023-03-14T00:26:13;14.80;;;2.80;;
63008;SDS011;49099;28.428;-16.488;2023-03-14T00:28:42;16.52;;;3.05;;
63008;SDS011;49099;28.428;-16.488;2023-03-14T00:31:11;15.05;;;3.25;;
63008;SDS011;49099;28.428;-16.488;2023-03-14T00:33:40;16.30;;;3.33;;
63008;SDS011;49099;28.428;-16.488;2023-03-14T00:36:09;15.05;;;3.30;;
63008;SDS011;49099;28.428;-16.488;2023-03-14T00:38:38;10.48;;;2.65;;
63008;SDS011;49099;28.428;-16.488;2023-03-14T00:41:07;14.68;;;2.80;;
63008;SDS011;49099;28.428;-16.488;2023-03-14T00:43:36;13.73;;;2.92;;
63008;SDS011;49099;28.428;-16.488;2023-03-14T00:46:04;17.40;;;3.38;;
63008;SDS011;49099;28.428;-16.488;2023-03-14T00:48:32;14.30;;;2.42;;
63008;SDS011;49099;28.428;-16.488;2023-03-14T00:50:59;13.68;;;2.70;;
63008;SDS011;49099;28.428;-16.488;2023-03-14T00:53:27;13.10;;;2.60;;
63008;SDS011;49099;28.428;-16.488;2023-03-14T00:55:54;20.38;;;3.38;;
63008;SDS011;49099;28.428;-16.488;2023-03-14T00:58:21;10.73;;;2.63;;
63008;SDS011;49099;28.428;-16.488;2023-03-14T01:00:48;11.50;;;2.65;;
63008;SDS011;49099;28.428;-16.488;2023-03-14T01:03:15;11.30;;;2.70;;
63008;SDS011;49099;28.428;-16.488;2023-03-14T01:05:42;13.18;;;2.90;;
63008;SDS011;49099;28.428;-16.488;2023-03-14T01:08:10;12.02;;;3.08;;
63008;SDS011;49099;28.428;-16.488;2023-03-14T01:10:39;12.05;;;2.60;;
63008;SDS011;49099;28.428;-16.488;2023-03-14T01:13:07;13.32;;;2.75;;
63008;SDS011;49099;28.428;-16.488;2023-03-14T01:15:36;10.45;;;2.22;;
63008;SDS011;49099;28.428;-16.488;2023-03-14T01:18:04;10.73;;;2.60;;
63008;SDS011;49099;28.428;-16.488;2023-03-14T01:20:31;9.27;;;2.20;;
63008;SDS011;49099;28.428;-16.488;2023-03-14T01:22:59;11.20;;;2.42;;
63008;SDS011;49099;28.428;-16.488;2023-03-14T01:25:26;10.20;;;2.25;;
63008;SDS011;49099;28.428;-16.488;2023-03-14T01:27:54;10.88;;;2.40;;
63008;SDS011;49099;28.428;-16.488;2023-03-14T01:30:21;9.93;;;2.50;;
63008;SDS011;49099;28.428;-16.488;2023-03-14T01:32:49;14.30;;;2.72;;
63008;SDS011;49099;28.428;-16.488;2023-03-14T01:35:16;10.10;;;2.40;;
63008;SDS011;49099;28.428;-16.488;2023-03-14T01:37:43;15.90;;;2.78;;
63008;SDS011;49099;28.428;-16.488;2023-03-14T01:40:10;9.82;;;2.50;;
63008;SDS011;49099;28.428;-16.488;2023-03-14T01:42:38;14.05;;;2.58;;
63008;SDS011;49099;28.428;-16.488;2023-03-14T01:45:05;11.55;;;2.50;;
63008;SDS011;49099;28.428;-16.488;2023-03-14T01:47:52;10.57;;;2.33;;
63008;SDS011;49099;28.428;-16.488;2023-03-14T01:50:19;13.35;;;3.25;;
63008;SDS011;49099;28.428;-16.488;2023-03-14T01:52:47;19.80;;;3.13;;
63008;SDS011;49099;28.428;-16.488;2023-03-14T01:55:17;14.50;;;2.47;;
63008;SDS011;49099;28.428;-16.488;2023-03-14T01:57:51;12.30;;;2.63;;
63008;SDS011;49099;28.428;-16.488;2023-03-14T02:00:23;11.60;;;2.40;;
63008;SDS011;49099;28.428;-16.488;2023-03-14T02:02:53;13.70;;;2.72;;
63008;SDS011;49099;28.428;-16.488;2023-03-14T02:05:25;12.50;;;2.67;;
63008;SDS011;49099;28.428;-16.488;2023-03-14T02:07:59;12.88;;;2.40;;
63008;SDS011;49099;28.428;-16.488;2023-03-14T02:10:30;13.48;;;3.00;;
63008;SDS011;49099;28.428;-16.488;2023-03-14T02:13:01;12.05;;;2.85;;
63008;SDS011;49099;28.428;-16.488;2023-03-14T02:15:29;12.20;;;2.63;;
63008;SDS011;49099;28.428;-16.488;2023-03-14T02:17:57;9.77;;;2.38;;
63008;SDS011;49099;28.428;-16.488;2023-03-14T02:21:00;10.82;;;2.50;;
63008;SDS011;49099;28.428;-16.488;2023-03-14T02:23:29;10.73;;;2.70;;
63008;SDS011;49099;28.428;-16.488;2023-03-14T02:26:05;10.98;;;2.70;;
63008;SDS011;49099;28.428;-16.488;2023-03-14T02:28:38;14.00;;;2.35;;
63008;SDS011;49099;28.428;-16.488;2023-03-14T02:31:05;10.40;;;2.30;;
63008;SDS011;49099;28.428;-16.488;2023-03-14T02:33:35;10.68;;;2.10;;
63008;SDS011;49099;28.428;-16.488;2023-03-14T02:36:05;8.82;;;2.33;;
63008;SDS011;49099;28.428;-16.488;2023-03-14T02:41:08;12.55;;;2.47;;
63008;SDS011;49099;28.428;-16.488;2023-03-14T02:43:35;9.32;;;2.28;;
63008;SDS011;49099;28.428;-16.488;2023-03-14T02:46:03;18.33;;;2.83;;
63008;SDS011;49099;28.428;-16.488;2023-03-14T02:48:39;15.02;;;2.75;;
63008;SDS011;49099;28.428;-16.488;2023-03-14T02:51:12;13.55;;;2.30;;
63008;SDS011;49099;28.428;-16.488;2023-03-14T02:53:41;16.48;;;2.40;;
63008;SDS011;49099;28.428;-16.488;2023-03-14T02:56:09;11.10;;;2.58;;
63008;SDS011;49099;28.428;-16.488;2023-03-14T02:58:37;13.27;;;2.63;;
63008;SDS011;49099;28.428;-16.488;2023-03-14T03:01:04;18.23;;;3.75;;
63008;SDS011;49099;28.428;-16.488;2023-03-14T03:03:31;15.32;;;2.60;;
63008;SDS011;49099;28.428;-16.488;2023-03-14T03:05:59;14.20;;;2.30;;
63008;SDS011;49099;28.428;-16.488;2023-03-14T03:08:27;12.95;;;2.60;;
63008;SDS011;49099;28.428;-16.488;2023-03-14T03:10:56;15.80;;;2.40;;
63008;SDS011;49099;28.428;-16.488;2023-03-14T03:13:24;14.25;;;3.10;;
63008;SDS011;49099;28.428;-16.488;2023-03-14T03:15:51;18.52;;;3.00;;
63008;SDS011;49099;28.428;-16.488;2023-03-14T03:18:19;12.90;;;2.47;;
63008;SDS011;49099;28.428;-16.488;2023-03-14T03:20:46;11.85;;;2.75;;
63008;SDS011;49099;28.428;-16.488;2023-03-14T03:23:13;13.43;;;2.63;;
63008;SDS011;49099;28.428;-16.488;2023-03-14T03:25:40;13.45;;;2.30;;
63008;SDS011;49099;28.428;-16.488;2023-03-14T03:28:07;9.60;;;2.30;;
63008;SDS011;49099;28.428;-16.488;2023-03-14T03:30:38;12.13;;;2.75;;
63008;SDS011;49099;28.428;-16.488;2023-03-14T03:33:07;10.15;;;2.40;;
63008;SDS011;49099;28.428;-16.488;2023-03-14T03:35:34;12.45;;;2.88;;
63008;SDS011;49099;28.428;-16.488;2023-03-14T03:38:01;9.98;;;2.40;;
63008;SDS011;49099;28.428;-16.488;2023-03-14T03:40:29;9.95;;;3.08;;
63008;SDS011;49099;28.428;-16.488;2023-03-14T03:42:56;14.10;;;2.70;;
63008;SDS011;49099;28.428;-16.488;2023-03-14T03:45:23;13.70;;;2.50;;
63008;SDS011;49099;28.428;-16.488;2023-03-14T03:47:50;12.48;;;2.60;;
63008;SDS011;49099;28.428;-16.488;2023-03-14T03:50:17;11.45;;;2.22;;
63008;SDS011;49099;28.428;-16.488;2023-03-14T03:52:44;12.55;;;2.20;;
63008;SDS011;49099;28.428;-16.488;2023-03-14T03:55:11;11.85;;;2.20;;
63008;SDS011;49099;28.428;-16.488;2023-03-14T03:57:38;10.10;;;2.25;;
63008;SDS011;49099;28.428;-16.488;2023-03-14T04:00:06;13.02;;;2.22;;
63008;SDS011;49099;28.428;-16.488;2023-03-14T04:02:35;14.50;;;2.50;;
63008;SDS011;49099;28.428;-16.488;2023-03-14T04:05:03;12.73;;;2.63;;
63008;SDS011;49099;28.428;-16.488;2023-03-14T04:07:33;13.45;;;2.90;;
63008;SDS011;49099;28.428;-16.488;2023-03-14T04:10:00;12.68;;;3.15;;
63008;SDS011;49099;28.428;-16.488;2023-03-14T04:12:27;13.13;;;2.65;;
63008;SDS011;49099;28.428;-16.488;2023-03-14T04:14:54;13.93;;;2.42;;
63008;SDS011;49099;28.428;-16.488;2023-03-14T04:17:21;13.93;;;2.38;;
63008;SDS011;49099;28.428;-16.488;2023-03-14T04:19:48;11.07;;;2.50;;
63008;SDS011;49099;28.428;-16.488;2023-03-14T04:22:18;11.68;;;2.42;;
63008;SDS011;49099;28.428;-16.488;2023-03-14T04:24:45;11.63;;;2.45;;
63008;SDS011;49099;28.428;-16.488;2023-03-14T04:27:12;12.93;;;2.28;;
63008;SDS011;49099;28.428;-16.488;2023-03-14T04:29:43;15.40;;;2.88;;
63008;SDS011;49099;28.428;-16.488;2023-03-14T04:32:11;14.98;;;2.50;;
63008;SDS011;49099;28.428;-16.488;2023-03-14T04:34:38;17.67;;;2.55;;
63008;SDS011;49099;28.428;-16.488;2023-03-14T04:37:05;11.57;;;2.47;;
63008;SDS011;49099;28.428;-16.488;2023-03-14T04:39:32;10.82;;;2.65;;
63008;SDS011;49099;28.428;-16.488;2023-03-14T04:41:59;14.55;;;3.22;;
63008;SDS011;49099;28.428;-16.488;2023-03-14T04:44:26;14.05;;;2.63;;
63008;SDS011;49099;28.428;-16.488;2023-03-14T04:46:53;10.02;;;2.50;;
63008;SDS011;49099;28.428;-16.488;2023-03-14T04:49:21;16.15;;;3.20;;
63008;SDS011;49099;28.428;-16.488;2023-03-14T04:51:48;12.85;;;2.65;;
63008;SDS011;49099;28.428;-16.488;2023-03-14T04:54:17;10.18;;;2.45;;
63008;SDS011;49099;28.428;-16.488;2023-03-14T04:56:44;12.80;;;2.70;;
63008;SDS011;49099;28.428;-16.488;2023-03-14T04:59:11;12.05;;;2.67;;
63008;SDS011;49099;28.428;-16.488;2023-03-14T05:01:38;17.77;;;2.95;;
63008;SDS011;49099;28.428;-16.488;2023-03-14T05:04:05;12.45;;;2.60;;
63008;SDS011;49099;28.428;-16.488;2023-03-14T05:06:33;12.98;;;2.95;;
63008;SDS011;49099;28.428;-16.488;2023-03-14T05:09:00;11.85;;;2.83;;
63008;SDS011;49099;28.428;-16.488;2023-03-14T05:11:27;14.40;;;2.72;;
63008;SDS011;49099;28.428;-16.488;2023-03-14T05:13:54;10.90;;;2.55;;
63008;SDS011;49099;28.428;-16.488;2023-03-14T05:16:21;9.85;;;2.38;;
63008;SDS011;49099;28.428;-16.488;2023-03-14T05:18:48;15.15;;;2.95;;
63008;SDS011;49099;28.428;-16.488;2023-03-14T05:21:16;10.18;;;2.38;;
63008;SDS011;49099;28.428;-16.488;2023-03-14T05:23:43;9.18;;;2.00;;
63008;SDS011;49099;28.428;-16.488;2023-03-14T05:26:10;6.32;;;1.95;;
63008;SDS011;49099;28.428;-16.488;2023-03-14T05:28:37;8.50;;;2.15;;
63008;SDS011;49099;28.428;-16.488;2023-03-14T05:31:08;7.35;;;1.80;;
63008;SDS011;49099;28.428;-16.488;2023-03-14T05:33:35;10.15;;;1.90;;
63008;SDS011;49099;28.428;-16.488;2023-03-14T05:36:03;14.18;;;2.00;;
63008;SDS011;49099;28.428;-16.488;2023-03-14T05:38:30;9.10;;;1.80;;
63008;SDS011;49099;28.428;-16.488;2023-03-14T05:40:57;9.05;;;1.77;;
63008;SDS011;49099;28.428;-16.488;2023-03-14T05:43:24;4.70;;;1.90;;
63008;SDS011;49099;28.428;-16.488;2023-03-14T05:45:51;6.40;;;1.80;;
63008;SDS011;49099;28.428;-16.488;2023-03-14T05:48:19;9.07;;;1.60;;
63008;SDS011;49099;28.428;-16.488;2023-03-14T05:50:48;8.15;;;1.73;;
63008;SDS011;49099;28.428;-16.488;2023-03-14T05:53:20;9.15;;;2.00;;
63008;SDS011;49099;28.428;-16.488;2023-03-14T05:55:50;5.68;;;1.90;;
63008;SDS011;49099;28.428;-16.488;2023-03-14T05:58:18;6.72;;;1.80;;
63008;SDS011;49099;28.428;-16.488;2023-03-14T06:00:45;5.60;;;1.80;;
63008;SDS011;49099;28.428;-16.488;2023-03-14T06:03:12;5.80;;;1.98;;
63008;SDS011;49099;28.428;-16.488;2023-03-14T06:05:39;8.90;;;1.90;;
63008;SDS011;49099;28.428;-16.488;2023-03-14T06:08:06;8.65;;;1.92;;
63008;SDS011;49099;28.428;-16.488;2023-03-14T06:10:34;7.88;;;2.20;;
63008;SDS011;49099;28.428;-16.488;2023-03-14T06:13:02;10.68;;;1.92;;
63008;SDS011;49099;28.428;-16.488;2023-03-14T06:15:29;8.73;;;2.42;;
63008;SDS011;49099;28.428;-16.488;2023-03-14T06:17:57;11.27;;;2.20;;
63008;SDS011;49099;28.428;-16.488;2023-03-14T06:20:24;10.52;;;2.22;;
63008;SDS011;49099;28.428;-16.488;2023-03-14T06:22:51;12.15;;;2.28;;
63008;SDS011;49099;28.428;-16.488;2023-03-14T06:25:18;15.25;;;3.10;;
63008;SDS011;49099;28.428;-16.488;2023-03-14T06:27:45;7.30;;;2.20;;
63008;SDS011;49099;28.428;-16.488;2023-03-14T06:30:12;10.27;;;2.25;;
63008;SDS011;49099;28.428;-16.488;2023-03-14T06:32:39;10.13;;;2.42;;
63008;SDS011;49099;28.428;-16.488;2023-03-14T06:35:07;9.15;;;2.38;;
63008;SDS011;49099;28.428;-16.488;2023-03-14T06:37:34;9.10;;;2.40;;
63008;SDS011;49099;28.428;-16.488;2023-03-14T06:40:02;9.10;;;2.30;;
63008;SDS011;49099;28.428;-16.488;2023-03-14T06:42:29;13.68;;;2.60;;
63008;SDS011;49099;28.428;-16.488;2023-03-14T06:44:56;9.55;;;2.67;;
63008;SDS011;49099;28.428;-16.488;2023-03-14T06:47:23;10.27;;;2.70;;
63008;SDS011;49099;28.428;-16.488;2023-03-14T06:49:50;12.80;;;2.70;;
63008;SDS011;49099;28.428;-16.488;2023-03-14T06:52:18;10.13;;;2.50;;
63008;SDS011;49099;28.428;-16.488;2023-03-14T06:54:45;10.35;;;3.00;;
63008;SDS011;49099;28.428;-16.488;2023-03-14T06:57:12;10.98;;;2.60;;
63008;SDS011;49099;28.428;-16.488;2023-03-14T06:59:39;11.73;;;2.53;;
63008;SDS011;49099;28.428;-16.488;2023-03-14T07:02:07;12.98;;;2.70;;
63008;SDS011;49099;28.428;-16.488;2023-03-14T07:04:38;9.82;;;2.80;;
63008;SDS011;49099;28.428;-16.488;2023-03-14T07:07:05;14.35;;;2.78;;
63008;SDS011;49099;28.428;-16.488;2023-03-14T07:09:33;14.88;;;3.17;;
63008;SDS011;49099;28.428;-16.488;2023-03-14T07:12:01;9.43;;;2.55;;
63008;SDS011;49099;28.428;-16.488;2023-03-14T07:14:30;13.88;;;3.08;;
63008;SDS011;49099;28.428;-16.488;2023-03-14T07:16:57;10.70;;;2.83;;
63008;SDS011;49099;28.428;-16.488;2023-03-14T07:19:24;14.38;;;2.80;;
63008;SDS011;49099;28.428;-16.488;2023-03-14T07:21:52;8.27;;;2.60;;
63008;SDS011;49099;28.428;-16.488;2023-03-14T07:24:19;7.30;;;3.00;;
63008;SDS011;49099;28.428;-16.488;2023-03-14T07:26:46;12.63;;;2.63;;
63008;SDS011;49099;28.428;-16.488;2023-03-14T07:29:13;10.55;;;3.05;;
63008;SDS011;49099;28.428;-16.488;2023-03-14T07:31:40;11.65;;;2.72;;
63008;SDS011;49099;28.428;-16.488;2023-03-14T07:34:08;8.73;;;2.80;;
63008;SDS011;49099;28.428;-16.488;2023-03-14T07:36:35;10.10;;;2.95;;
63008;SDS011;49099;28.428;-16.488;2023-03-14T07:39:02;14.70;;;3.22;;
63008;SDS011;49099;28.428;-16.488;2023-03-14T07:41:31;12.63;;;3.38;;
63008;SDS011;49099;28.428;-16.488;2023-03-14T07:43:59;15.23;;;3.45;;
63008;SDS011;49099;28.428;-16.488;2023-03-14T07:46:26;11.98;;;2.90;;
63008;SDS011;49099;28.428;-16.488;2023-03-14T07:48:53;12.30;;;3.17;;
63008;SDS011;49099;28.428;-16.488;2023-03-14T07:51:20;13.10;;;3.45;;
63008;SDS011;49099;28.428;-16.488;2023-03-14T07:53:47;15.95;;;3.65;;
63008;SDS011;49099;28.428;-16.488;2023-03-14T07:56:14;13.02;;;3.28;;
63008;SDS011;49099;28.428;-16.488;2023-03-14T07:58:41;16.33;;;3.67;;
63008;SDS011;49099;28.428;-16.488;2023-03-14T08:01:08;14.55;;;3.90;;
63008;SDS011;49099;28.428;-16.488;2023-03-14T08:03:36;17.42;;;3.88;;
63008;SDS011;49099;28.428;-16.488;2023-03-14T08:06:03;14.45;;;3.55;;
63008;SDS011;49099;28.428;-16.488;2023-03-14T08:08:30;8.90;;;3.10;;
63008;SDS011;49099;28.428;-16.488;2023-03-14T08:11:04;16.38;;;3.65;;
63008;SDS011;49099;28.428;-16.488;2023-03-14T08:13:32;10.63;;;3.30;;
63008;SDS011;49099;28.428;-16.488;2023-03-14T08:15:59;14.75;;;3.30;;
63008;SDS011;49099;28.428;-16.488;2023-03-14T08:18:26;18.38;;;3.65;;
63008;SDS011;49099;28.428;-16.488;2023-03-14T08:20:54;26.05;;;4.50;;
63008;SDS011;49099;28.428;-16.488;2023-03-14T08:23:21;12.38;;;3.42;;
63008;SDS011;49099;28.428;-16.488;2023-03-14T08:25:49;15.63;;;3.80;;
63008;SDS011;49099;28.428;-16.488;2023-03-14T08:28:17;17.20;;;3.63;;
63008;SDS011;49099;28.428;-16.488;2023-03-14T08:30:44;21.85;;;3.88;;
63008;SDS011;49099;28.428;-16.488;2023-03-14T08:33:15;23.70;;;4.13;;
63008;SDS011;49099;28.428;-16.488;2023-03-14T08:35:42;17.00;;;3.85;;
63008;SDS011;49099;28.428;-16.488;2023-03-14T08:38:09;18.40;;;4.35;;
63008;SDS011;49099;28.428;-16.488;2023-03-14T08:40:36;28.40;;;5.25;;
63008;SDS011;49099;28.428;-16.488;2023-03-14T08:43:03;29.70;;;5.47;;
63008;SDS011;49099;28.428;-16.488;2023-03-14T08:45:30;41.25;;;6.40;;
63008;SDS011;49099;28.428;-16.488;2023-03-14T08:47:58;21.23;;;4.22;;
63008;SDS011;49099;28.428;-16.488;2023-03-14T08:50:25;16.58;;;4.35;;
63008;SDS011;49099;28.428;-16.488;2023-03-14T08:52:53;36.38;;;5.85;;
63008;SDS011;49099;28.428;-16.488;2023-03-14T08:55:20;37.10;;;5.68;;
63008;SDS011;49099;28.428;-16.488;2023-03-14T08:57:47;42.22;;;5.97;;
63008;SDS011;49099;28.428;-16.488;2023-03-14T09:00:14;39.72;;;6.63;;
63008;SDS011;49099;28.428;-16.488;2023-03-14T09:02:42;20.13;;;4.22;;
63008;SDS011;49099;28.428;-16.488;2023-03-14T09:05:10;68.90;;;8.10;;
63008;SDS011;49099;28.428;-16.488;2023-03-14T09:07:38;28.00;;;5.45;;
63008;SDS011;49099;28.428;-16.488;2023-03-14T09:10:06;31.13;;;4.78;;
63008;SDS011;49099;28.428;-16.488;2023-03-14T09:12:34;37.60;;;6.10;;
63008;SDS011;49099;28.428;-16.488;2023-03-14T09:15:02;36.00;;;5.43;;
63008;SDS011;49099;28.428;-16.488;2023-03-14T09:17:29;24.70;;;4.95;;
63008;SDS011;49099;28.428;-16.488;2023-03-14T09:19:56;22.00;;;4.82;;
63008;SDS011;49099;28.428;-16.488;2023-03-14T09:22:26;16.25;;;3.80;;
63008;SDS011;49099;28.428;-16.488;2023-03-14T09:24:53;15.50;;;4.10;;
63008;SDS011;49099;28.428;-16.488;2023-03-14T09:27:20;19.55;;;4.75;;
63008;SDS011;49099;28.428;-16.488;2023-03-14T09:29:47;21.63;;;4.82;;
63008;SDS011;49099;28.428;-16.488;2023-03-14T09:32:14;19.15;;;4.25;;
63008;SDS011;49099;28.428;-16.488;2023-03-14T09:34:41;27.00;;;4.70;;
63008;SDS011;49099;28.428;-16.488;2023-03-14T09:37:08;27.48;;;5.20;;
63008;SDS011;49099;28.428;-16.488;2023-03-14T09:39:35;26.83;;;5.35;;
63008;SDS011;49099;28.428;-16.488;2023-03-14T09:42:04;18.80;;;4.20;;
63008;SDS011;49099;28.428;-16.488;2023-03-14T09:44:35;24.63;;;4.43;;
63008;SDS011;49099;28.428;-16.488;2023-03-14T09:47:07;22.20;;;4.43;;
63008;SDS011;49099;28.428;-16.488;2023-03-14T09:49:41;19.75;;;4.50;;
63008;SDS011;49099;28.428;-16.488;2023-03-14T09:54:49;22.83;;;4.93;;
63008;SDS011;49099;28.428;-16.488;2023-03-14T09:57:19;21.80;;;4.55;;
63008;SDS011;49099;28.428;-16.488;2023-03-14T09:59:50;20.58;;;4.55;;
63008;SDS011;49099;28.428;-16.488;2023-03-14T10:02:21;17.42;;;4.20;;
63008;SDS011;49099;28.428;-16.488;2023-03-14T10:04:51;18.85;;;4.53;;
63008;SDS011;49099;28.428;-16.488;2023-03-14T10:07:26;15.60;;;4.20;;
63008;SDS011;49099;28.428;-16.488;2023-03-14T10:09:55;22.38;;;4.78;;
63008;SDS011;49099;28.428;-16.488;2023-03-14T10:12:33;19.77;;;4.75;;
63008;SDS011;49099;28.428;-16.488;2023-03-14T10:15:04;14.27;;;4.47;;
63008;SDS011;49099;28.428;-16.488;2023-03-14T10:17:43;17.88;;;4.50;;
63008;SDS011;49099;28.428;-16.488;2023-03-14T10:20:33;16.92;;;4.30;;
63008;SDS011;49099;28.428;-16.488;2023-03-14T10:23:27;22.35;;;4.50;;
63008;SDS011;49099;28.428;-16.488;2023-03-14T10:28:46;52.45;;;8.23;;
63008;SDS011;49099;28.428;-16.488;2023-03-14T10:31:18;32.95;;;6.45;;
63008;SDS011;49099;28.428;-16.488;2023-03-14T10:33:58;35.10;;;6.78;;
63008;SDS011;49099;28.428;-16.488;2023-03-14T10:36:30;30.00;;;6.30;;
63008;SDS011;49099;28.428;-16.488;2023-03-14T10:41:52;19.17;;;5.13;;
63008;SDS011;49099;28.428;-16.488;2023-03-14T10:44:23;29.30;;;5.78;;
63008;SDS011;49099;28.428;-16.488;2023-03-14T10:46:59;33.00;;;6.30;;
63008;SDS011;49099;28.428;-16.488;2023-03-14T10:49:29;28.00;;;5.57;;
63008;SDS011;49099;28.428;-16.488;2023-03-14T10:52:19;17.15;;;4.93;;
63008;SDS011;49099;28.428;-16.488;2023-03-14T10:54:49;22.73;;;4.85;;
63008;SDS011;49099;28.428;-16.488;2023-03-14T10:57:23;26.17;;;4.78;;
63008;SDS011;49099;28.428;-16.488;2023-03-14T10:59:50;25.35;;;5.35;;
63008;SDS011;49099;28.428;-16.488;2023-03-14T11:07:47;16.02;;;4.63;;
63008;SDS011;49099;28.428;-16.488;2023-03-14T11:10:24;23.00;;;4.80;;
63008;SDS011;49099;28.428;-16.488;2023-03-14T11:18:36;21.42;;;4.75;;
63008;SDS011;49099;28.428;-16.488;2023-03-14T11:21:46;22.50;;;5.10;;
63008;SDS011;49099;28.428;-16.488;2023-03-14T11:27:18;20.45;;;4.97;;
63008;SDS011;49099;28.428;-16.488;2023-03-14T11:29:54;16.85;;;4.93;;
63008;SDS011;49099;28.428;-16.488;2023-03-14T11:32:45;27.25;;;6.03;;
63008;SDS011;49099;28.428;-16.488;2023-03-14T11:35:36;28.15;;;5.57;;
63008;SDS011;49099;28.428;-16.488;2023-03-14T11:41:04;29.77;;;5.93;;
63008;SDS011;49099;28.428;-16.488;2023-03-14T11:43:39;21.83;;;5.43;;
63008;SDS011;49099;28.428;-16.488;2023-03-14T11:51:43;23.65;;;5.50;;
63008;SDS011;49099;28.428;-16.488;2023-03-14T11:54:18;34.13;;;5.90;;
63008;SDS011;49099;28.428;-16.488;2023-03-14T11:56:57;34.35;;;6.07;;
63008;SDS011;49099;28.428;-16.488;2023-03-14T11:59:28;33.17;;;5.88;;
63008;SDS011;49099;28.428;-16.488;2023-03-14T12:02:10;36.75;;;6.70;;
63008;SDS011;49099;28.428;-16.488;2023-03-14T12:07:26;35.20;;;6.35;;
63008;SDS011;49099;28.428;-16.488;2023-03-14T12:10:05;30.13;;;6.03;;
63008;SDS011;49099;28.428;-16.488;2023-03-14T12:12:32;32.30;;;6.13;;
63008;SDS011;49099;28.428;-16.488;2023-03-14T12:15:01;26.80;;;5.22;;
63008;SDS011;49099;28.428;-16.488;2023-03-14T12:17:39;32.90;;;6.30;;
63008;SDS011;49099;28.428;-16.488;2023-03-14T12:20:16;30.23;;;6.20;;
63008;SDS011;49099;28.428;-16.488;2023-03-14T12:22:46;34.60;;;7.13;;
63008;SDS011;49099;28.428;-16.488;2023-03-14T12:25:17;43.55;;;8.85;;
63008;SDS011;49099;28.428;-16.488;2023-03-14T12:30:30;42.45;;;9.02;;
63008;SDS011;49099;28.428;-16.488;2023-03-14T12:35:47;48.10;;;7.80;;
63008;SDS011;49099;28.428;-16.488;2023-03-14T12:43:53;32.05;;;6.57;;
63008;SDS011;49099;28.428;-16.488;2023-03-14T12:46:21;34.22;;;6.78;;
63008;SDS011;49099;28.428;-16.488;2023-03-14T12:57:04;29.00;;;6.18;;
63008;SDS011;49099;28.428;-16.488;2023-03-14T12:59:47;30.42;;;5.90;;
63008;SDS011;49099;28.428;-16.488;2023-03-14T13:02:25;24.55;;;6.07;;
63008;SDS011;49099;28.428;-16.488;2023-03-14T13:05:10;37.58;;;7.05;;
63008;SDS011;49099;28.428;-16.488;2023-03-14T13:10:23;31.48;;;5.78;;
63008;SDS011;49099;28.428;-16.488;2023-03-14T13:12:56;24.52;;;5.38;;
63008;SDS011;49099;28.428;-16.488;2023-03-14T13:18:11;29.40;;;5.35;;
63008;SDS011;49099;28.428;-16.488;2023-03-14T13:20:42;29.27;;;5.55;;
63008;SDS011;49099;28.428;-16.488;2023-03-14T13:23:24;27.48;;;5.30;;
63008;SDS011;49099;28.428;-16.488;2023-03-14T13:25:56;29.90;;;5.95;;
63008;SDS011;49099;28.428;-16.488;2023-03-14T13:28:26;20.98;;;5.22;;
63008;SDS011;49099;28.428;-16.488;2023-03-14T13:31:01;21.90;;;4.93;;
63008;SDS011;49099;28.428;-16.488;2023-03-14T13:33:29;32.15;;;5.70;;
63008;SDS011;49099;28.428;-16.488;2023-03-14T13:35:59;25.85;;;5.72;;
63008;SDS011;49099;28.428;-16.488;2023-03-14T13:38:33;28.98;;;5.75;;
63008;SDS011;49099;28.428;-16.488;2023-03-14T13:41:06;30.60;;;5.72;;
63008;SDS011;49099;28.428;-16.488;2023-03-14T13:43:40;31.63;;;6.28;;
63008;SDS011;49099;28.428;-16.488;2023-03-14T13:46:13;23.15;;;5.47;;
63008;SDS011;49099;28.428;-16.488;2023-03-14T13:51:49;35.10;;;6.10;;
63008;SDS011;49099;28.428;-16.488;2023-03-14T13:54:17;28.48;;;5.88;;
63008;SDS011;49099;28.428;-16.488;2023-03-14T13:56:46;33.78;;;5.88;;
63008;SDS011;49099;28.428;-16.488;2023-03-14T13:59:20;34.58;;;6.38;;
63008;SDS011;49099;28.428;-16.488;2023-03-14T14:01:52;33.50;;;6.78;;
63008;SDS011;49099;28.428;-16.488;2023-03-14T14:04:21;36.38;;;6.75;;
63008;SDS011;49099;28.428;-16.488;2023-03-14T14:11:55;37.22;;;6.82;;
63008;SDS011;49099;28.428;-16.488;2023-03-14T14:17:16;28.85;;;5.90;;
63008;SDS011;49099;28.428;-16.488;2023-03-14T14:19:48;24.20;;;5.67;;
63008;SDS011;49099;28.428;-16.488;2023-03-14T14:22:16;33.45;;;6.70;;
63008;SDS011;49099;28.428;-16.488;2023-03-14T14:24:44;40.15;;;6.32;;
63008;SDS011;49099;28.428;-16.488;2023-03-14T14:27:47;32.33;;;5.95;;
63008;SDS011;49099;28.428;-16.488;2023-03-14T14:32:46;27.88;;;5.82;;
63008;SDS011;49099;28.428;-16.488;2023-03-14T14:35:24;40.97;;;6.90;;
63008;SDS011;49099;28.428;-16.488;2023-03-14T14:37:59;22.13;;;5.50;;
63008;SDS011;49099;28.428;-16.488;2023-03-14T14:40:28;22.30;;;5.18;;
63008;SDS011;49099;28.428;-16.488;2023-03-14T14:43:03;26.23;;;5.85;;
63008;SDS011;49099;28.428;-16.488;2023-03-14T14:45:33;21.75;;;5.40;;
63008;SDS011;49099;28.428;-16.488;2023-03-14T14:50:32;28.05;;;5.55;;
63008;SDS011;49099;28.428;-16.488;2023-03-14T14:55:50;27.83;;;5.82;;
63008;SDS011;49099;28.428;-16.488;2023-03-14T14:58:35;22.13;;;5.32;;
63008;SDS011;49099;28.428;-16.488;2023-03-14T15:01:24;22.38;;;4.82;;
63008;SDS011;49099;28.428;-16.488;2023-03-14T15:03:56;26.63;;;5.40;;
63008;SDS011;49099;28.428;-16.488;2023-03-14T15:06:24;27.48;;;5.75;;
63008;SDS011;49099;28.428;-16.488;2023-03-14T15:08:55;28.77;;;5.32;;
63008;SDS011;49099;28.428;-16.488;2023-03-14T15:11:25;35.55;;;6.47;;
63008;SDS011;49099;28.428;-16.488;2023-03-14T15:13:53;34.72;;;6.65;;
63008;SDS011;49099;28.428;-16.488;2023-03-14T15:16:26;31.67;;;6.32;;
63008;SDS011;49099;28.428;-16.488;2023-03-14T15:18:57;33.63;;;6.72;;
63008;SDS011;49099;28.428;-16.488;2023-03-14T15:21:28;25.63;;;6.18;;
63008;SDS011;49099;28.428;-16.488;2023-03-14T15:23:55;30.10;;;5.85;;
63008;SDS011;49099;28.428;-16.488;2023-03-14T15:26:23;26.50;;;5.43;;
63008;SDS011;49099;28.428;-16.488;2023-03-14T15:28:52;35.45;;;6.40;;
63008;SDS011;49099;28.428;-16.488;2023-03-14T15:31:20;32.95;;;7.25;;
63008;SDS011;49099;28.428;-16.488;2023-03-14T15:33:48;33.35;;;6.47;;
63008;SDS011;49099;28.428;-16.488;2023-03-14T15:36:26;30.80;;;5.93;;
63008;SDS011;49099;28.428;-16.488;2023-03-14T15:38:55;25.02;;;4.97;;
63008;SDS011;49099;28.428;-16.488;2023-03-14T15:41:24;34.65;;;5.80;;
63008;SDS011;49099;28.428;-16.488;2023-03-14T15:43:53;35.33;;;6.07;;
63008;SDS011;49099;28.428;-16.488;2023-03-14T15:46:21;28.02;;;5.25;;